createdAt,value
2022-10-04T00:00:34.944Z,2.65
2022-10-04T00:03:10.303Z,1.80
2022-10-04T00:05:38.965Z,1.92
2022-10-04T00:08:42.279Z,1.83
2022-10-04T00:11:25.498Z,2.47
2022-10-04T00:14:17.401Z,1.98
2022-10-04T00:16:44.691Z,1.73
2022-10-04T00:19:20.253Z,1.88
2022-10-04T00:21:53.373Z,2.05
2022-10-04T00:24:26.374Z,5.38
2022-10-04T00:26:52.998Z,2.72
2022-10-04T00:29:34.770Z,2.72
2022-10-04T00:32:10.522Z,2.15
2022-10-04T00:34:49.424Z,2.13
2022-10-04T00:37:18.291Z,2.65
2022-10-04T00:40:04.941Z,2.78
2022-10-04T00:43:02.898Z,2.85
2022-10-04T00:45:58.417Z,2.13
2022-10-04T00:48:34.542Z,2.42
2022-10-04T00:51:19.156Z,2.75
2022-10-04T00:54:23.459Z,2.70
2022-10-04T00:56:52.335Z,2.72
2022-10-04T00:59:50.325Z,2.90
2022-10-04T01:02:27.515Z,3.08
2022-10-04T01:05:06.656Z,2.42
2022-10-04T01:07:41.883Z,2.17
2022-10-04T01:10:13.516Z,2.47
2022-10-04T01:12:48.722Z,5.47
2022-10-04T01:15:25.323Z,3.30
2022-10-04T01:18:10.958Z,2.25
2022-10-04T01:20:54.362Z,4.88
2022-10-04T01:23:36.829Z,5.75
2022-10-04T01:26:06.370Z,6.13
2022-10-04T01:28:35.531Z,6.35
2022-10-04T01:31:02.418Z,4.90
2022-10-04T01:33:29.987Z,3.67
2022-10-04T01:35:57.362Z,4.10
2022-10-04T01:38:24.113Z,5.10
2022-10-04T01:40:57.221Z,4.57
2022-10-04T01:43:29.845Z,4.35
2022-10-04T01:48:32.233Z,7.55
2022-10-04T01:51:05.426Z,14.50
2022-10-04T01:53:40.725Z,13.90
2022-10-04T01:56:55.416Z,26.17
2022-10-04T01:59:27.677Z,43.00
2022-10-04T02:02:02.759Z,22.23
2022-10-04T02:04:36.688Z,45.05
2022-10-04T02:07:04.528Z,96.55
2022-10-04T02:09:38.596Z,53.75
2022-10-04T02:12:06.454Z,48.40
2022-10-04T02:14:36.482Z,61.10
2022-10-04T02:17:10.387Z,40.35
2022-10-04T02:19:41.610Z,6.97
2022-10-04T02:22:10.743Z,3.95
2022-10-04T02:24:42.446Z,12.20
2022-10-04T02:27:09.298Z,9.03
2022-10-04T02:29:36.103Z,8.95
2022-10-04T02:32:24.517Z,23.05
2022-10-04T02:34:52.431Z,22.33
2022-10-04T02:37:21.086Z,23.42
2022-10-04T02:40:11.014Z,9.52
2022-10-04T02:42:48.220Z,23.92
2022-10-04T02:45:32.009Z,16.85
2022-10-04T02:48:02.869Z,5.70
2022-10-04T02:50:58.963Z,9.20
2022-10-04T02:53:29.970Z,5.88
2022-10-04T02:55:58.030Z,4.65
2022-10-04T02:58:26.991Z,3.97
2022-10-04T03:00:59.975Z,28.23
2022-10-04T03:03:40.181Z,40.40
2022-10-04T03:06:19.924Z,36.45
2022-10-04T03:08:53.538Z,44.08
2022-10-04T03:11:23.652Z,20.73
2022-10-04T03:13:54.943Z,32.45
2022-10-04T03:16:22.132Z,5.10
2022-10-04T03:18:51.610Z,14.48
2022-10-04T03:21:21.506Z,2.60
2022-10-04T03:23:51.039Z,2.17
2022-10-04T03:26:32.981Z,2.20
2022-10-04T03:29:00.499Z,4.47
2022-10-04T03:31:28.655Z,3.03
2022-10-04T03:33:57.500Z,5.00
2022-10-04T03:36:26.669Z,12.27
2022-10-04T03:38:56.848Z,8.07
2022-10-04T03:41:25.719Z,7.57
2022-10-04T03:43:54.837Z,10.85
2022-10-04T03:46:23.339Z,23.77
2022-10-04T03:48:52.540Z,41.33
2022-10-04T03:51:22.171Z,25.15
2022-10-04T03:53:52.480Z,23.55
2022-10-04T03:56:25.478Z,16.58
2022-10-04T03:58:52.713Z,12.75
2022-10-04T04:01:34.685Z,12.13
2022-10-04T04:04:03.299Z,9.00
2022-10-04T04:06:43.341Z,11.48
2022-10-04T04:09:35.929Z,11.27
2022-10-04T04:12:10.241Z,8.85
2022-10-04T04:17:25.502Z,6.28
2022-10-04T04:19:54.409Z,3.65
2022-10-04T04:22:21.496Z,4.38
2022-10-04T04:24:50.341Z,6.35
2022-10-04T04:27:18.656Z,4.93
2022-10-04T04:29:54.982Z,2.63
2022-10-04T04:32:32.169Z,3.80
2022-10-04T04:35:06.836Z,26.33
2022-10-04T04:37:35.727Z,12.75
2022-10-04T04:40:21.326Z,55.10
2022-10-04T04:42:49.751Z,10.13
2022-10-04T04:45:25.594Z,3.28
2022-10-04T04:47:55.997Z,7.65
2022-10-04T04:50:25.997Z,10.68
2022-10-04T04:53:08.293Z,2.00
2022-10-04T04:56:05.212Z,3.25
2022-10-04T04:58:46.093Z,4.00
2022-10-04T05:01:28.778Z,1.92
2022-10-04T05:06:30.638Z,2.58
2022-10-04T05:08:57.300Z,6.32
2022-10-04T05:11:29.989Z,2.13
2022-10-04T05:14:06.751Z,2.53
2022-10-04T05:16:44.992Z,2.22
2022-10-04T05:19:28.723Z,1.90
2022-10-04T05:21:58.188Z,2.10
2022-10-04T05:24:31.694Z,3.20
2022-10-04T05:27:06.650Z,3.03
2022-10-04T05:29:37.558Z,1.83
2022-10-04T05:32:27.905Z,2.38
2022-10-04T05:34:55.096Z,2.92
2022-10-04T05:37:45.415Z,12.27
2022-10-04T05:40:15.011Z,4.70
2022-10-04T05:42:45.670Z,3.03
2022-10-04T05:45:19.907Z,3.00
2022-10-04T05:47:50.632Z,6.03
2022-10-04T05:50:21.457Z,4.07
2022-10-04T05:52:51.252Z,6.20
2022-10-04T05:55:32.265Z,8.68
2022-10-04T05:58:18.263Z,3.13
2022-10-04T06:01:10.397Z,3.33
2022-10-04T06:03:37.137Z,3.05
2022-10-04T06:06:28.709Z,2.75
2022-10-04T06:09:29.096Z,2.58
2022-10-04T06:12:09.632Z,2.20
2022-10-04T06:15:13.242Z,2.40
2022-10-04T06:18:35.393Z,3.22
2022-10-04T06:21:19.961Z,2.00
2022-10-04T06:24:03.274Z,1.90
2022-10-04T06:26:38.299Z,3.42
2022-10-04T06:29:11.124Z,1.52
2022-10-04T06:32:20.421Z,1.50
2022-10-04T06:34:56.991Z,1.50
2022-10-04T06:38:04.887Z,1.27
2022-10-04T06:40:54.158Z,1.50
2022-10-04T06:43:34.713Z,2.03
2022-10-04T06:46:22.761Z,2.00
2022-10-04T06:48:56.718Z,1.92
2022-10-04T06:51:47.205Z,3.10
2022-10-04T06:54:22.812Z,1.70
2022-10-04T06:57:31.486Z,3.83
2022-10-04T07:00:08.018Z,4.40
2022-10-04T07:02:42.091Z,4.93
2022-10-04T07:05:16.072Z,6.85
2022-10-04T07:07:47.600Z,9.23
2022-10-04T07:10:31.279Z,7.28
2022-10-04T07:13:04.004Z,9.20
2022-10-04T07:16:04.372Z,7.13
2022-10-04T07:18:54.745Z,6.40
2022-10-04T07:21:26.154Z,5.78
2022-10-04T07:23:58.778Z,4.07
2022-10-04T07:29:12.853Z,3.80
2022-10-04T07:31:41.676Z,4.18
2022-10-04T07:34:18.294Z,2.38
2022-10-04T07:37:00.396Z,2.17
2022-10-04T07:39:50.909Z,2.42
2022-10-04T07:42:32.222Z,1.25
2022-10-04T07:45:40.484Z,2.58
2022-10-04T07:48:15.109Z,4.40
2022-10-04T07:51:00.904Z,1.77
2022-10-04T07:53:37.262Z,2.55
2022-10-04T07:56:21.096Z,4.00
2022-10-04T07:58:54.547Z,2.80
2022-10-04T08:01:24.097Z,6.35
2022-10-04T08:04:04.980Z,2.97
2022-10-04T08:06:52.683Z,1.95
2022-10-04T08:09:41.137Z,2.42
2022-10-04T08:12:22.922Z,2.25
2022-10-04T08:15:14.395Z,3.88
2022-10-04T08:17:53.039Z,3.08
2022-10-04T08:20:59.550Z,1.58
2022-10-04T08:23:44.774Z,1.70
2022-10-04T08:26:20.277Z,1.95
2022-10-04T08:29:05.569Z,2.88
2022-10-04T08:32:06.101Z,1.70
2022-10-04T08:34:51.959Z,2.13
2022-10-04T08:37:37.513Z,1.55
2022-10-04T08:40:44.061Z,2.30
2022-10-04T08:43:41.584Z,2.58
2022-10-04T08:46:52.955Z,2.10
2022-10-04T08:49:54.391Z,2.58
2022-10-04T08:52:51.920Z,7.45
2022-10-04T08:55:35.141Z,2.33
2022-10-04T08:58:27.683Z,3.55
2022-10-04T09:01:25.431Z,2.38
2022-10-04T09:04:30.112Z,1.95
2022-10-04T09:07:09.015Z,2.60
2022-10-04T09:10:13.667Z,3.90
2022-10-04T09:13:01.554Z,2.50
2022-10-04T09:15:44.816Z,1.90
2022-10-04T09:18:40.668Z,3.38
2022-10-04T09:21:47.378Z,1.40
2022-10-04T09:24:56.740Z,3.08
2022-10-04T09:27:53.761Z,2.28
2022-10-04T09:30:21.271Z,1.75
2022-10-04T09:33:15.393Z,2.38
2022-10-04T09:35:50.911Z,1.58
2022-10-04T09:38:40.159Z,2.75
2022-10-04T09:41:40.769Z,2.97
2022-10-04T09:44:30.731Z,0.90
2022-10-04T09:47:15.116Z,2.28
2022-10-04T09:50:03.610Z,2.10
2022-10-04T09:52:49.123Z,2.67
2022-10-04T09:55:42.237Z,1.55
2022-10-04T09:58:30.012Z,1.20
2022-10-04T10:01:09.654Z,1.90
2022-10-04T10:04:13.496Z,1.40
2022-10-04T10:07:05.280Z,1.20
2022-10-04T10:10:20.896Z,1.20
2022-10-04T10:13:28.752Z,1.63
2022-10-04T10:16:09.915Z,1.92
2022-10-04T10:18:58.391Z,2.22
2022-10-04T10:21:53.167Z,2.55
2022-10-04T10:24:56.159Z,2.85
2022-10-04T10:27:40.150Z,1.35
2022-10-04T10:30:25.792Z,1.17
2022-10-04T10:33:21.480Z,1.63
2022-10-04T10:36:17.043Z,0.98
2022-10-04T10:39:17.508Z,4.13
2022-10-04T10:41:51.310Z,1.45
2022-10-04T10:44:20.475Z,1.08
2022-10-04T10:47:08.408Z,2.55
2022-10-04T10:49:44.336Z,1.20
2022-10-04T10:52:42.347Z,1.25
2022-10-04T10:55:36.757Z,1.52
2022-10-04T10:58:36.594Z,12.98
2022-10-04T11:01:35.748Z,2.75
2022-10-04T11:04:32.730Z,2.65
2022-10-04T11:07:30.270Z,7.35
2022-10-04T11:10:29.244Z,1.95
2022-10-04T11:13:18.647Z,2.35
2022-10-04T11:16:04.018Z,1.05
2022-10-04T11:18:58.591Z,1.00
2022-10-04T11:21:41.892Z,0.93
2022-10-04T11:24:30.225Z,1.55
2022-10-04T11:27:34.436Z,0.70
2022-10-04T11:30:17.344Z,0.50
2022-10-04T11:33:29.403Z,0.70
2022-10-04T11:36:20.349Z,0.73
2022-10-04T11:39:04.604Z,0.60
2022-10-04T11:41:43.080Z,0.50
2022-10-04T11:44:41.987Z,0.47
2022-10-04T11:47:41.345Z,0.60
2022-10-04T11:50:29.617Z,1.05
2022-10-04T11:53:30.424Z,1.50
2022-10-04T11:56:16.873Z,2.05
2022-10-04T11:59:12.455Z,2.47
2022-10-04T12:02:10.662Z,1.10
2022-10-04T12:04:58.521Z,1.58
2022-10-04T12:07:44.111Z,1.15
2022-10-04T12:10:36.226Z,2.00
2022-10-04T12:13:19.888Z,0.63
2022-10-04T12:15:49.364Z,0.90
2022-10-04T12:18:37.704Z,2.13
2022-10-04T12:21:42.039Z,0.70
2022-10-04T12:24:39.903Z,1.40
2022-10-04T12:27:39.038Z,1.60
2022-10-04T12:30:12.017Z,2.38
2022-10-04T12:32:58.159Z,0.90
2022-10-04T12:35:46.147Z,1.27
2022-10-04T12:38:32.075Z,1.25
2022-10-04T12:41:04.831Z,2.47
2022-10-04T12:43:50.110Z,1.13
2022-10-04T12:46:47.178Z,0.70
2022-10-04T12:49:47.416Z,1.05
2022-10-04T12:52:21.144Z,0.60
2022-10-04T12:55:09.207Z,0.75
2022-10-04T12:57:57.226Z,0.93
2022-10-04T13:00:26.014Z,2.53
2022-10-04T13:02:55.863Z,0.77
2022-10-04T13:06:07.750Z,1.05
2022-10-04T13:08:49.879Z,1.95
2022-10-04T13:11:39.796Z,0.82
2022-10-04T13:14:18.482Z,0.70
2022-10-04T13:20:22.519Z,0.77
2022-10-04T13:23:19.184Z,2.28
2022-10-04T13:26:04.712Z,1.50
2022-10-04T13:29:08.390Z,0.70
2022-10-04T13:31:48.805Z,0.47
2022-10-04T13:34:29.376Z,0.85
2022-10-04T13:37:15.049Z,1.05
2022-10-04T13:39:47.832Z,1.05
2022-10-04T13:42:39.729Z,0.57
2022-10-04T13:45:21.375Z,1.47
2022-10-04T13:48:23.400Z,1.50
2022-10-04T13:51:14.548Z,0.50
2022-10-04T13:54:17.548Z,2.15
2022-10-04T13:59:26.624Z,0.65
2022-10-04T14:02:18.837Z,2.38
2022-10-04T14:05:15.392Z,0.80
2022-10-04T14:08:06.447Z,0.85
2022-10-04T14:10:58.923Z,3.90
2022-10-04T14:13:44.298Z,3.78
2022-10-04T14:16:35.680Z,0.65
2022-10-04T14:19:22.770Z,0.93
2022-10-04T14:22:04.253Z,1.38
2022-10-04T14:24:47.905Z,1.05
2022-10-04T14:27:29.041Z,0.70
2022-10-04T14:30:06.162Z,2.72
2022-10-04T14:32:45.812Z,0.85
2022-10-04T14:35:35.308Z,3.13
2022-10-04T14:38:11.108Z,1.85
2022-10-04T14:40:59.707Z,2.13
2022-10-04T14:43:54.676Z,1.42
2022-10-04T14:46:37.624Z,1.45
2022-10-04T14:49:04.519Z,2.45
2022-10-04T14:51:37.675Z,0.85
2022-10-04T14:54:32.590Z,3.60
2022-10-04T14:57:13.150Z,3.22
2022-10-04T15:00:11.458Z,2.90
2022-10-04T15:02:52.074Z,1.05
2022-10-04T15:05:44.368Z,2.35
2022-10-04T15:10:48.079Z,2.17
2022-10-04T15:13:33.094Z,0.85
2022-10-04T15:16:33.751Z,1.80
2022-10-04T15:19:34.949Z,0.77
2022-10-04T15:22:35.882Z,2.03
2022-10-04T15:25:23.833Z,0.60
2022-10-04T15:27:56.001Z,2.60
2022-10-04T15:30:46.388Z,1.15
2022-10-04T15:33:32.768Z,0.70
2022-10-04T15:36:02.264Z,1.50
2022-10-04T15:38:38.914Z,1.27
2022-10-04T15:41:30.610Z,0.82
2022-10-04T15:44:13.915Z,1.10
2022-10-04T15:46:45.091Z,1.65
2022-10-04T15:49:53.353Z,2.35
2022-10-04T15:52:49.286Z,3.55
2022-10-04T15:55:33.965Z,2.95
2022-10-04T15:58:28.000Z,6.50
2022-10-04T16:01:20.989Z,2.15
2022-10-04T16:04:13.796Z,1.25
2022-10-04T16:07:06.233Z,2.67
2022-10-04T16:12:19.320Z,0.90
2022-10-04T16:15:32.787Z,2.53
2022-10-04T16:18:58.111Z,1.73
2022-10-04T16:21:33.496Z,3.65
2022-10-04T16:24:18.048Z,1.55
2022-10-04T16:26:45.031Z,1.67
2022-10-04T16:29:29.245Z,1.77
2022-10-04T16:32:13.158Z,10.48
2022-10-04T16:35:00.422Z,12.73
2022-10-04T16:37:39.113Z,4.15
2022-10-04T16:40:35.947Z,1.48
2022-10-04T16:43:11.208Z,3.10
2022-10-04T16:46:02.525Z,1.63
2022-10-04T16:48:39.115Z,3.03
2022-10-04T16:51:05.794Z,3.78
2022-10-04T16:54:00.036Z,3.45
2022-10-04T16:56:51.489Z,4.50
2022-10-04T16:59:38.408Z,18.65
2022-10-04T17:02:43.375Z,10.07
2022-10-04T17:05:47.235Z,5.15
2022-10-04T17:08:16.978Z,10.55
2022-10-04T17:10:49.476Z,33.55
2022-10-04T17:13:23.316Z,28.40
2022-10-04T17:16:02.822Z,13.55
2022-10-04T17:18:55.418Z,5.18
2022-10-04T17:21:32.477Z,6.50
2022-10-04T17:24:08.846Z,4.70
2022-10-04T17:26:44.134Z,4.93
2022-10-04T17:29:53.628Z,8.10
2022-10-04T17:32:28.312Z,5.97
2022-10-04T17:35:22.846Z,2.88
2022-10-04T17:38:09.173Z,4.40
2022-10-04T17:41:13.358Z,6.13
2022-10-04T17:44:03.525Z,4.82
2022-10-04T17:46:58.657Z,4.18
2022-10-04T17:50:04.825Z,2.72
2022-10-04T17:52:59.957Z,3.53
2022-10-04T17:55:43.917Z,3.08
2022-10-04T17:58:25.767Z,2.50
2022-10-04T18:00:55.282Z,3.10
2022-10-04T18:03:37.171Z,3.72
2022-10-04T18:06:39.577Z,5.07
2022-10-04T18:09:20.462Z,3.73
2022-10-04T18:11:58.591Z,3.65
2022-10-04T18:14:56.213Z,3.20
2022-10-04T18:17:48.019Z,4.45
2022-10-04T18:20:32.088Z,4.85
2022-10-04T18:23:16.058Z,4.88
2022-10-04T18:25:43.311Z,4.90
2022-10-04T18:28:09.962Z,7.32
2022-10-04T18:30:48.963Z,5.28
2022-10-04T18:33:17.370Z,4.50
2022-10-04T18:36:00.868Z,3.28
2022-10-04T18:38:33.293Z,3.50
2022-10-04T18:41:20.432Z,3.30
2022-10-04T18:43:51.325Z,5.88
2022-10-04T18:46:23.190Z,5.97
2022-10-04T18:48:55.790Z,4.18
2022-10-04T18:54:06.382Z,4.15
2022-10-04T18:56:47.814Z,3.90
2022-10-04T18:59:59.848Z,7.68
2022-10-04T19:02:46.372Z,5.97
2022-10-04T19:05:26.003Z,3.00
2022-10-04T19:08:08.029Z,4.65
2022-10-04T19:10:43.765Z,3.47
2022-10-04T19:13:16.395Z,3.03
2022-10-04T19:18:56.029Z,2.65
2022-10-04T19:21:49.483Z,4.00
2022-10-04T19:24:43.758Z,3.63
2022-10-04T19:27:17.954Z,3.53
2022-10-04T19:30:15.287Z,8.00
2022-10-04T19:32:59.387Z,4.32
2022-10-04T19:35:46.737Z,4.28
2022-10-04T19:38:42.628Z,4.82
2022-10-04T19:41:29.157Z,2.40
2022-10-04T19:44:05.509Z,2.58
2022-10-04T19:46:57.429Z,3.30
2022-10-04T19:49:40.486Z,7.10
2022-10-04T19:52:21.928Z,3.78
2022-10-04T19:54:59.174Z,3.80
2022-10-04T19:57:37.621Z,8.57
2022-10-04T20:00:12.749Z,4.82
2022-10-04T20:02:48.405Z,4.25
2022-10-04T20:05:24.505Z,3.92
2022-10-04T20:07:55.965Z,5.13
2022-10-04T20:10:33.710Z,4.38
2022-10-04T20:13:21.371Z,4.43
2022-10-04T20:15:50.491Z,4.30
2022-10-04T20:18:32.261Z,3.20
2022-10-04T20:21:00.171Z,2.17
2022-10-04T20:23:39.181Z,1.90
2022-10-04T20:26:09.828Z,1.70
2022-10-04T20:28:41.498Z,1.83
2022-10-04T20:31:10.694Z,1.70
2022-10-04T20:33:40.658Z,1.73
2022-10-04T20:36:10.190Z,2.90
2022-10-04T20:38:53.793Z,1.70
2022-10-04T20:41:29.415Z,2.22
2022-10-04T20:43:58.180Z,1.33
2022-10-04T20:46:26.766Z,1.80
2022-10-04T20:48:54.935Z,2.38
2022-10-04T20:51:24.016Z,2.15
2022-10-04T20:53:51.030Z,2.42
2022-10-04T20:56:24.531Z,5.85
2022-10-04T20:58:53.780Z,3.60
2022-10-04T21:01:32.055Z,2.53
2022-10-04T21:04:33.082Z,4.53
2022-10-04T21:07:02.694Z,2.22
2022-10-04T21:09:36.636Z,2.53
2022-10-04T21:12:04.939Z,3.22
2022-10-04T21:14:38.519Z,2.85
2022-10-04T21:17:28.177Z,2.28
2022-10-04T21:19:54.981Z,6.28
2022-10-04T21:22:33.097Z,2.17
2022-10-04T21:25:27.660Z,4.45
2022-10-04T21:27:54.402Z,3.13
2022-10-04T21:30:22.865Z,5.68
2022-10-04T21:32:49.587Z,1.80
2022-10-04T21:35:16.231Z,2.13
2022-10-04T21:37:42.898Z,1.50
2022-10-04T21:40:09.841Z,1.90
2022-10-04T21:42:36.571Z,7.82
2022-10-04T21:45:03.625Z,2.88
2022-10-04T21:47:30.317Z,2.33
2022-10-04T21:49:57.303Z,1.50
2022-10-04T21:52:24.067Z,2.15
2022-10-04T21:54:50.710Z,2.75
2022-10-04T21:57:17.372Z,1.45
2022-10-04T21:59:44.026Z,4.18
2022-10-04T22:02:10.718Z,1.30
2022-10-04T22:04:38.123Z,2.83
2022-10-04T22:07:05.013Z,2.08
2022-10-04T22:09:33.115Z,1.50
2022-10-04T22:11:59.841Z,1.85
2022-10-04T22:14:26.524Z,2.65
2022-10-04T22:16:53.233Z,5.80
2022-10-04T22:19:19.942Z,1.35
2022-10-04T22:21:46.616Z,2.85
2022-10-04T22:24:18.536Z,0.82
2022-10-04T22:26:45.863Z,0.80
2022-10-04T22:29:17.429Z,1.20
2022-10-04T22:31:50.603Z,1.58
2022-10-04T22:34:20.304Z,1.10
2022-10-04T22:36:49.345Z,2.17
2022-10-04T22:39:18.634Z,1.30
2022-10-04T22:41:47.814Z,1.73
2022-10-04T22:44:18.464Z,1.63
2022-10-04T22:46:51.344Z,1.17
2022-10-04T22:49:21.898Z,2.00
2022-10-04T22:51:51.578Z,1.60
2022-10-04T22:54:24.462Z,1.50
2022-10-04T22:56:52.609Z,1.25
2022-10-04T22:59:22.939Z,1.10
2022-10-04T23:01:49.743Z,1.98
2022-10-04T23:04:24.964Z,1.67
2022-10-04T23:06:53.063Z,1.70
2022-10-04T23:09:20.482Z,1.17
2022-10-04T23:11:47.382Z,1.25
2022-10-04T23:14:14.085Z,0.90
2022-10-04T23:16:40.849Z,1.73
2022-10-04T23:19:13.512Z,1.75
2022-10-04T23:24:12.614Z,2.15
2022-10-04T23:26:40.058Z,2.80
2022-10-04T23:29:14.670Z,1.20
2022-10-04T23:31:41.506Z,1.55
2022-10-04T23:34:24.008Z,3.08
2022-10-04T23:36:51.962Z,0.93
2022-10-04T23:39:25.649Z,1.50
2022-10-04T23:41:54.608Z,1.40
2022-10-04T23:44:24.302Z,1.48
2022-10-04T23:46:51.906Z,1.85
2022-10-04T23:49:22.519Z,2.88
2022-10-04T23:51:52.962Z,1.13
2022-10-04T23:54:20.282Z,1.60
2022-10-04T23:56:47.826Z,1.38
2022-10-04T23:59:20.093Z,1.63
